Time;durP1;ratioP1;P1;durP2;ratioP2;P2;SDS_P1;SDS_P2;PMS_P1;PMS_P2;Temp;Humidity;BMP_temperature;BMP_pressure;BME280_temperature;BME280_humidity;BME280_pressure;Samples;Min_cycle;Max_cycle;Signal;HPM_P1;HPM_P2
2023/09/27 00:01:04;;;;;;;11.35;8.40;;;;;;;13.73;100.00;101812.44;5111598;28;20159;-54
2023/09/27 00:03:32;;;;;;;10.80;7.88;;;;;;;13.69;100.00;101811.78;5111869;28;20553;-53
2023/09/27 00:06:01;;;;;;;10.60;7.90;;;;;;;13.72;100.00;101817.84;5111430;28;20059;-53
2023/09/27 00:08:29;;;;;;;11.30;8.02;;;;;;;13.76;100.00;101828.09;5111244;28;20039;-54
2023/09/27 00:10:57;;;;;;;14.13;7.70;;;;;;;13.79;100.00;101840.28;5112198;28;20380;-52
2023/09/27 00:13:25;;;;;;;11.63;8.02;;;;;;;13.80;100.00;101834.91;5112213;28;20861;-54
2023/09/27 00:15:53;;;;;;;10.20;7.97;;;;;;;13.83;100.00;101834.69;5111202;28;20052;-53
2023/09/27 00:18:23;;;;;;;10.13;7.57;;;;;;;13.88;100.00;101834.41;5111568;28;20052;-55
2023/09/27 00:20:52;;;;;;;10.90;8.27;;;;;;;13.88;100.00;101834.41;5110989;28;20054;-54
2023/09/27 00:23:22;;;;;;;11.23;8.43;;;;;;;13.90;100.00;101835.16;5111146;28;20044;-54
2023/09/27 00:25:50;;;;;;;16.05;8.25;;;;;;;13.93;100.00;101836.75;5109992;28;20252;-53
2023/09/27 00:28:18;;;;;;;10.88;8.60;;;;;;;13.96;100.00;101841.84;5111402;28;20581;-56
2023/09/27 00:30:46;;;;;;;10.77;8.38;;;;;;;13.98;100.00;101846.09;5111594;28;20128;-55
2023/09/27 00:33:14;;;;;;;14.07;8.45;;;;;;;14.01;100.00;101845.88;5110563;28;20150;-51
2023/09/27 00:35:48;;;;;;;11.57;8.57;;;;;;;14.05;100.00;101851.00;5113985;28;20506;-53
2023/09/27 00:38:16;;;;;;;11.30;8.07;;;;;;;14.05;100.00;101845.72;5111606;27;20052;-53
2023/09/27 00:40:46;;;;;;;11.27;7.30;;;;;;;14.07;100.00;101843.81;5109715;28;20039;-54
2023/09/27 00:43:29;;;;;;;11.32;7.97;;;;;;;14.07;100.00;101839.38;5111208;28;20490;-51
2023/09/27 00:46:01;;;;;;;12.52;8.02;;;;;;;14.07;100.00;101836.75;5111760;28;20491;-53
2023/09/27 00:48:31;;;;;;;12.30;7.75;;;;;;;14.11;100.00;101835.59;5111877;28;20044;-55
2023/09/27 00:51:02;;;;;;;12.05;7.88;;;;;;;14.13;100.00;101835.50;5111057;28;20040;-54
2023/09/27 00:53:33;;;;;;;12.75;8.25;;;;;;;14.13;100.00;101840.78;5109275;28;20047;-53
2023/09/27 00:56:02;;;;;;;12.98;8.23;;;;;;;14.14;100.00;101831.91;5109158;28;20750;-54
2023/09/27 00:58:32;;;;;;;11.40;7.93;;;;;;;14.13;100.00;101835.50;5110692;28;20040;-54
2023/09/27 01:01:00;;;;;;;10.27;7.13;;;;;;;14.14;100.00;101839.84;5110556;28;20517;-53
2023/09/27 01:03:28;;;;;;;10.18;7.13;;;;;;;14.12;100.00;101837.28;5112803;28;20047;-53
2023/09/27 01:05:56;;;;;;;11.60;7.78;;;;;;;14.11;100.00;101838.25;5110408;28;20046;-54
2023/09/27 01:08:26;;;;;;;10.48;7.70;;;;;;;14.09;100.00;101834.00;5111046;28;20055;-53
2023/09/27 01:10:54;;;;;;;13.57;7.40;;;;;;;14.06;100.00;101836.81;5113870;28;20032;-53
2023/09/27 01:13:25;;;;;;;10.73;6.93;;;;;;;14.05;100.00;101853.66;5113771;28;20046;-53
2023/09/27 01:15:53;;;;;;;9.95;7.90;;;;;;;14.03;100.00;101837.88;5111597;28;20150;-54
2023/09/27 01:18:21;;;;;;;11.15;8.07;;;;;;;14.02;100.00;101815.84;5110129;28;20082;-52
2023/09/27 01:20:50;;;;;;;11.85;7.95;;;;;;;14.02;100.00;101818.50;5109924;28;20039;-52
2023/09/27 01:23:19;;;;;;;12.82;7.93;;;;;;;13.94;100.00;101812.84;5110659;28;20398;-52
2023/09/27 01:25:51;;;;;;;11.20;7.72;;;;;;;13.91;100.00;101826.28;5108853;28;20039;-53
2023/09/27 01:28:21;;;;;;;11.53;7.80;;;;;;;13.89;100.00;101809.66;5110270;28;20061;-54
2023/09/27 01:30:49;;;;;;;10.77;8.25;;;;;;;13.86;100.00;101805.44;5108610;28;20142;-56
2023/09/27 01:33:17;;;;;;;11.95;8.38;;;;;;;13.81;100.00;101814.59;5110408;28;20061;-55
2023/09/27 01:35:46;;;;;;;12.20;8.18;;;;;;;13.80;100.00;101818.19;5110925;28;20654;-54
2023/09/27 01:38:14;;;;;;;14.10;7.95;;;;;;;13.76;100.00;101814.06;5111428;28;20130;-54
2023/09/27 01:40:45;;;;;;;12.18;8.35;;;;;;;13.76;100.00;101803.47;5108314;28;20517;-53
2023/09/27 01:43:13;;;;;;;12.25;8.20;;;;;;;13.70;100.00;101807.34;5109679;28;20081;-55
2023/09/27 01:45:42;;;;;;;11.30;7.95;;;;;;;13.62;100.00;101807.84;5109673;28;20039;-55
2023/09/27 01:48:13;;;;;;;11.30;8.35;;;;;;;13.63;100.00;101798.97;5109341;28;20127;-54
2023/09/27 01:50:41;;;;;;;12.50;7.55;;;;;;;13.60;100.00;101804.41;5108297;28;20051;-54
2023/09/27 01:53:08;;;;;;;11.35;8.00;;;;;;;13.58;100.00;101806.31;5107844;28;20163;-54
2023/09/27 01:55:36;;;;;;;14.15;7.68;;;;;;;13.55;100.00;101806.50;5108132;28;20122;-55
2023/09/27 01:58:06;;;;;;;10.82;7.80;;;;;;;13.53;100.00;101803.13;5109396;28;20047;-53
2023/09/27 02:00:35;;;;;;;10.77;8.00;;;;;;;13.49;100.00;101797.16;5109300;28;20050;-54
2023/09/27 02:03:04;;;;;;;12.32;9.20;;;;;;;13.41;100.00;101793.31;5109604;28;20051;-53
2023/09/27 02:05:33;;;;;;;13.57;9.45;;;;;;;13.38;100.00;101793.50;5109238;28;20056;-50
2023/09/27 02:08:01;;;;;;;13.55;9.23;;;;;;;13.38;100.00;101788.22;5111373;28;20530;-54
2023/09/27 02:10:31;;;;;;;13.75;10.10;;;;;;;13.34;100.00;101777.78;5112573;28;20044;-54
2023/09/27 02:13:00;;;;;;;13.20;10.43;;;;;;;13.28;100.00;101783.47;5112939;28;20518;-53
2023/09/27 02:15:29;;;;;;;14.10;9.95;;;;;;;13.24;100.00;101787.25;5112433;28;20047;-53
2023/09/27 02:17:57;;;;;;;12.40;10.18;;;;;;;13.22;100.00;101804.97;5110800;28;20421;-54
2023/09/27 02:20:25;;;;;;;17.02;11.02;;;;;;;13.20;100.00;101801.59;5108593;28;20043;-55
2023/09/27 02:22:55;;;;;;;14.02;11.63;;;;;;;13.18;100.00;101814.91;5111481;28;20100;-54
2023/09/27 02:25:25;;;;;;;15.02;12.70;;;;;;;13.21;100.00;101803.28;5111761;28;20105;-54
2023/09/27 02:27:54;;;;;;;15.75;13.38;;;;;;;13.18;100.00;101799.03;5108825;28;20091;-55
2023/09/27 02:30:22;;;;;;;17.88;13.05;;;;;;;13.08;100.00;101799.69;5108831;28;20043;-54
2023/09/27 02:32:52;;;;;;;16.10;11.75;;;;;;;13.11;100.00;101799.50;5109515;28;20055;-55
2023/09/27 02:35:21;;;;;;;14.05;11.75;;;;;;;13.07;100.00;101805.91;5109209;28;20097;-54
2023/09/27 02:37:49;;;;;;;14.10;11.75;;;;;;;13.08;100.00;101808.47;5108903;28;20047;-54
2023/09/27 02:40:18;;;;;;;16.35;13.18;;;;;;;13.05;100.00;101808.66;5107104;28;20071;-53
2023/09/27 02:42:48;;;;;;;15.73;12.27;;;;;;;13.00;100.00;101806.25;5109031;28;20044;-54
2023/09/27 02:45:16;;;;;;;17.00;12.30;;;;;;;12.96;100.00;101809.19;5108529;28;20046;-54
2023/09/27 02:47:46;;;;;;;13.48;11.23;;;;;;;12.97;100.00;101816.19;5109054;28;20036;-54
2023/09/27 02:50:16;;;;;;;18.05;12.93;;;;;;;12.95;100.00;101807.50;5108700;28;20047;-54
2023/09/27 02:52:45;;;;;;;16.00;12.40;;;;;;;12.94;100.00;101811.06;5111071;28;20506;-54
2023/09/27 02:55:13;;;;;;;16.05;11.82;;;;;;;12.92;100.00;101797.97;5106645;28;20143;-55
2023/09/27 02:57:48;;;;;;;15.45;11.82;;;;;;;12.87;100.00;101802.69;5108910;28;20062;-54
2023/09/27 03:00:17;;;;;;;14.95;12.43;;;;;;;12.83;100.00;101809.94;5108556;28;20126;-55
2023/09/27 03:02:45;;;;;;;17.45;11.98;;;;;;;12.87;100.00;101810.59;5111373;28;20058;-53
2023/09/27 03:05:14;;;;;;;16.33;12.88;;;;;;;12.88;100.00;101807.00;5108694;28;20041;-54
2023/09/27 03:07:45;;;;;;;14.68;11.85;;;;;;;12.83;100.00;101814.38;5108573;28;20101;-52
2023/09/27 03:10:14;;;;;;;15.30;11.48;;;;;;;12.80;100.00;101812.75;5107072;28;20502;-55
2023/09/27 03:12:47;;;;;;;14.32;10.98;;;;;;;12.79;100.00;101816.34;5109284;28;20067;-54
2023/09/27 03:15:16;;;;;;;14.80;11.10;;;;;;;12.81;100.00;101819.72;5107091;28;20043;-54
2023/09/27 03:17:45;;;;;;;14.40;11.23;;;;;;;12.78;100.00;101814.63;5108728;28;20119;-54
2023/09/27 03:20:17;;;;;;;14.68;11.77;;;;;;;12.80;100.00;101812.75;5109557;28;20075;-55
2023/09/27 03:22:47;;;;;;;15.93;11.20;;;;;;;12.78;100.00;101813.78;5111748;28;20526;-52
2023/09/27 03:25:17;;;;;;;16.52;12.27;;;;;;;12.76;100.00;101819.16;5111747;28;20050;-55
2023/09/27 03:27:46;;;;;;;13.52;10.57;;;;;;;12.67;100.00;101815.25;5111496;28;20498;-55
2023/09/27 03:30:15;;;;;;;14.68;10.27;;;;;;;12.67;100.00;101809.13;5108396;28;20043;-55
2023/09/27 03:32:46;;;;;;;15.05;10.60;;;;;;;12.65;100.00;101813.66;5109702;28;20124;-54
2023/09/27 03:35:15;;;;;;;13.35;10.70;;;;;;;12.63;100.00;101819.00;5112051;28;20052;-55
2023/09/27 03:37:44;;;;;;;13.18;10.70;;;;;;;12.61;100.00;101815.63;5112813;28;20096;-54
2023/09/27 03:40:14;;;;;;;14.25;10.57;;;;;;;12.57;100.00;101814.13;5110690;28;20043;-54
2023/09/27 03:42:44;;;;;;;12.40;9.93;;;;;;;12.58;100.00;101815.78;5112951;28;20402;-56
2023/09/27 03:45:14;;;;;;;13.05;10.13;;;;;;;12.55;100.00;101808.06;5110877;28;20043;-55
2023/09/27 03:47:44;;;;;;;15.48;10.75;;;;;;;12.51;100.00;101820.56;5112685;28;20040;-54
2023/09/27 03:50:13;;;;;;;15.88;10.65;;;;;;;12.51;100.00;101823.22;5111778;28;20126;-54
2023/09/27 03:52:41;;;;;;;12.75;9.85;;;;;;;12.50;100.00;101824.16;5111624;28;20596;-53
2023/09/27 03:55:09;;;;;;;11.77;9.45;;;;;;;12.46;100.00;101820.00;5110934;27;20179;-54
2023/09/27 03:57:40;;;;;;;13.95;10.43;;;;;;;12.44;100.00;101823.66;5114006;28;20052;-53
2023/09/27 04:00:12;;;;;;;14.57;10.05;;;;;;;12.43;100.00;101825.44;5111983;28;20538;-55
2023/09/27 04:02:41;;;;;;;13.63;10.50;;;;;;;12.45;100.00;101828.84;5111019;28;20420;-52
2023/09/27 04:05:10;;;;;;;14.70;11.05;;;;;;;12.44;100.00;101834.22;5111964;28;20051;-53
2023/09/27 04:07:39;;;;;;;14.45;10.75;;;;;;;12.45;100.00;101823.56;5111925;28;20055;-55
2023/09/27 04:10:09;;;;;;;15.77;10.20;;;;;;;12.46;100.00;101829.69;5110312;28;20105;-56
2023/09/27 04:12:41;;;;;;;14.55;10.90;;;;;;;12.48;100.00;101820.75;5113707;28;20051;-53
2023/09/27 04:15:10;;;;;;;13.10;10.02;;;;;;;12.48;100.00;101810.19;5114993;28;20130;-54
2023/09/27 04:17:39;;;;;;;12.85;10.38;;;;;;;12.41;100.00;101813.31;5114606;28;20523;-55
2023/09/27 04:20:13;;;;;;;16.10;11.02;;;;;;;12.37;100.00;101815.25;5113751;28;20048;-55
2023/09/27 04:22:44;;;;;;;14.60;12.00;;;;;;;12.31;100.00;101819.09;5111701;28;20092;-55
2023/09/27 04:25:13;;;;;;;15.10;12.02;;;;;;;12.31;100.00;101823.50;5110045;28;20071;-55
2023/09/27 04:27:45;;;;;;;15.50;10.93;;;;;;;12.31;100.00;101820.88;5111679;28;20057;-55
2023/09/27 04:30:19;;;;;;;15.30;11.15;;;;;;;12.29;100.00;101820.97;5110953;28;20118;-55
2023/09/27 04:32:50;;;;;;;14.80;10.85;;;;;;;12.25;100.00;101832.63;5111946;28;20115;-54
2023/09/27 04:35:20;;;;;;;12.32;10.15;;;;;;;12.25;100.00;101835.25;5111265;28;20058;-53
2023/09/27 04:37:48;;;;;;;16.17;11.48;;;;;;;12.28;100.00;101834.25;5111492;28;20130;-55
2023/09/27 04:40:17;;;;;;;14.57;10.98;;;;;;;12.26;100.00;101836.13;5110175;27;20056;-55
2023/09/27 04:42:47;;;;;;;12.73;10.45;;;;;;;12.26;100.00;101829.06;5111697;28;20036;-56
2023/09/27 04:45:16;;;;;;;16.33;10.85;;;;;;;12.26;100.00;101831.69;5113189;28;20058;-53
2023/09/27 04:47:44;;;;;;;14.27;10.20;;;;;;;12.22;100.00;101830.16;5112776;28;20506;-56
2023/09/27 04:50:15;;;;;;;12.20;10.05;;;;;;;12.16;100.00;101835.78;5110286;28;20506;-55
2023/09/27 04:52:44;;;;;;;12.98;10.23;;;;;;;12.12;100.00;101839.50;5111146;27;20146;-55
2023/09/27 04:55:14;;;;;;;13.02;10.45;;;;;;;12.11;100.00;101846.59;5113117;27;20071;-54
2023/09/27 04:57:42;;;;;;;13.65;10.75;;;;;;;12.10;100.00;101852.78;5113972;28;20063;-54
2023/09/27 05:00:18;;;;;;;14.35;11.30;;;;;;;12.10;100.00;101863.34;5111624;28;20766;-53
2023/09/27 05:02:47;;;;;;;14.23;11.40;;;;;;;12.08;100.00;101870.50;5109948;28;20138;-55
2023/09/27 05:05:16;;;;;;;15.82;12.25;;;;;;;12.07;100.00;101871.44;5113205;27;20168;-54
2023/09/27 05:07:44;;;;;;;15.23;12.38;;;;;;;12.08;100.00;101862.59;5113530;28;20059;-55
2023/09/27 05:10:13;;;;;;;15.00;12.30;;;;;;;12.05;100.00;101870.63;5108580;28;20126;-57
2023/09/27 05:12:41;;;;;;;16.83;12.88;;;;;;;12.11;100.00;101872.13;5110999;28;20051;-54
2023/09/27 05:15:10;;;;;;;16.42;13.25;;;;;;;12.05;100.00;101873.28;5110214;28;20044;-54
2023/09/27 05:17:39;;;;;;;16.65;12.57;;;;;;;12.05;100.00;101870.63;5110465;28;20397;-53
2023/09/27 05:20:10;;;;;;;16.40;13.38;;;;;;;12.07;100.00;101862.69;5110285;28;20052;-55
2023/09/27 05:22:40;;;;;;;17.90;13.73;;;;;;;12.05;100.00;101856.63;5110155;28;20104;-55
2023/09/27 05:25:09;;;;;;;18.85;14.30;;;;;;;11.97;100.00;101843.84;5111146;28;20723;-54
2023/09/27 05:27:38;;;;;;;17.48;15.02;;;;;;;12.08;100.00;101832.72;5111713;28;20058;-54
2023/09/27 05:30:08;;;;;;;17.80;15.88;;;;;;;12.01;100.00;101832.19;5109650;28;20081;-56
2023/09/27 05:32:37;;;;;;;19.80;16.50;;;;;;;12.00;100.00;101826.09;5108985;28;20063;-55
2023/09/27 05:35:08;;;;;;;18.50;15.45;;;;;;;12.00;100.00;101831.34;5110161;28;20138;-55
2023/09/27 05:37:36;;;;;;;19.23;16.33;;;;;;;11.99;100.00;101834.09;5110412;28;20486;-53
2023/09/27 05:40:07;;;;;;;18.40;15.75;;;;;;;11.98;100.00;101825.34;5113295;28;20052;-55
2023/09/27 05:42:35;;;;;;;19.85;16.38;;;;;;;11.98;100.00;101833.25;5111152;28;20039;-55
2023/09/27 05:45:04;;;;;;;22.67;17.10;;;;;;;12.00;100.00;101846.34;5109669;27;20048;-55
2023/09/27 05:47:32;;;;;;;20.35;16.75;;;;;;;12.03;100.00;101837.41;5109871;28;20092;-56
2023/09/27 05:50:01;;;;;;;19.45;17.33;;;;;;;12.02;100.00;101839.19;5113047;28;20549;-56
2023/09/27 05:52:34;;;;;;;20.55;17.23;;;;;;;12.02;100.00;101847.09;5111495;28;20124;-56
2023/09/27 05:55:05;;;;;;;20.65;17.58;;;;;;;12.03;100.00;101846.16;5107011;28;20513;-56
2023/09/27 05:57:36;;;;;;;20.75;17.25;;;;;;;12.05;100.00;101840.81;5108716;28;20055;-56
2023/09/27 06:00:15;;;;;;;22.52;17.67;;;;;;;12.07;100.00;101839.78;5109633;28;20104;-56
2023/09/27 06:02:43;;;;;;;20.92;17.08;;;;;;;12.09;100.00;101835.28;5108340;28;20124;-55
2023/09/27 06:05:12;;;;;;;20.50;17.55;;;;;;;12.15;100.00;101831.47;5109111;28;20043;-56
2023/09/27 06:07:42;;;;;;;18.30;16.20;;;;;;;12.20;100.00;101831.19;5109451;28;20126;-54
2023/09/27 06:10:11;;;;;;;20.52;18.10;;;;;;;12.22;100.00;101831.97;5107390;28;20075;-55
2023/09/27 06:12:39;;;;;;;20.38;18.08;;;;;;;12.25;100.00;101837.91;5109631;28;20058;-55
2023/09/27 06:15:09;;;;;;;21.23;18.00;;;;;;;12.29;100.00;101834.16;5109036;28;20051;-54
2023/09/27 06:17:38;;;;;;;19.95;17.35;;;;;;;12.34;100.00;101829.47;5110030;27;20048;-56
2023/09/27 06:20:15;;;;;;;23.35;17.48;;;;;;;12.39;100.00;101826.56;5109434;28;20558;-55
2023/09/27 06:22:48;;;;;;;21.40;18.58;;;;;;;12.43;100.00;101822.81;5109027;28;20110;-53
2023/09/27 06:25:18;;;;;;;23.13;17.75;;;;;;;12.46;100.00;101813.88;5108465;28;20118;-55
2023/09/27 06:27:46;;;;;;;21.00;17.35;;;;;;;12.52;100.00;101824.06;5112163;28;20114;-55
2023/09/27 06:30:15;;;;;;;22.48;18.42;;;;;;;12.56;100.00;101820.31;5112432;28;20127;-54
2023/09/27 06:32:44;;;;;;;22.45;19.55;;;;;;;12.62;100.00;101827.03;5112263;28;20069;-54
2023/09/27 06:35:14;;;;;;;21.83;18.95;;;;;;;12.66;100.00;101832.03;5109155;28;20529;-55
2023/09/27 06:37:43;;;;;;;23.13;19.05;;;;;;;12.72;100.00;101835.25;5109220;28;20057;-54
2023/09/27 06:40:16;;;;;;;24.92;21.55;;;;;;;12.77;100.00;101836.69;5106811;28;20055;-56
2023/09/27 06:42:45;;;;;;;24.27;21.67;;;;;;;12.84;100.00;101837.16;5109138;28;20047;-55
2023/09/27 06:45:16;;;;;;;23.58;20.67;;;;;;;12.87;100.00;101831.72;5111623;28;20040;-55
2023/09/27 06:47:46;;;;;;;24.83;19.80;;;;;;;12.95;100.00;101831.25;5109137;28;20071;-55
2023/09/27 06:50:16;;;;;;;30.77;23.60;;;;;;;13.05;100.00;101827.13;5109185;28;20040;-53
2023/09/27 06:52:45;;;;;;;28.98;25.15;;;;;;;13.13;100.00;101839.84;5112155;28;20529;-55
2023/09/27 06:55:16;;;;;;;26.92;22.70;;;;;;;13.17;100.00;101844.00;5112315;28;20040;-55
2023/09/27 06:57:46;;;;;;;28.80;23.13;;;;;;;13.22;100.00;101852.50;5112027;28;20090;-55
2023/09/27 07:00:18;;;;;;;26.63;22.25;;;;;;;13.29;100.00;101853.88;5108715;28;20052;-56
2023/09/27 07:02:47;;;;;;;27.83;23.20;;;;;;;13.41;100.00;101848.81;5108903;28;20039;-54
2023/09/27 07:05:17;;;;;;;28.75;23.73;;;;;;;13.57;100.00;101849.56;5108697;28;20074;-54
2023/09/27 07:07:46;;;;;;;27.55;24.63;;;;;;;13.71;100.00;101845.22;5108663;28;20039;-54
2023/09/27 07:10:16;;;;;;;29.17;25.90;;;;;;;13.86;100.00;101847.75;5110576;28;20062;-52
2023/09/27 07:12:46;;;;;;;28.83;25.17;;;;;;;14.08;100.00;101848.16;5115944;28;20051;-55
2023/09/27 07:15:14;;;;;;;28.50;25.40;;;;;;;14.24;100.00;101833.00;5115148;28;20054;-54
2023/09/27 07:17:43;;;;;;;29.20;24.85;;;;;;;14.38;100.00;101832.09;5113062;28;20051;-56
2023/09/27 07:20:23;;;;;;;27.80;24.48;;;;;;;14.44;100.00;101839.63;5114532;28;20047;-55
2023/09/27 07:22:52;;;;;;;24.48;21.90;;;;;;;14.51;100.00;101834.78;5114800;28;20043;-54
2023/09/27 07:25:22;;;;;;;25.60;22.85;;;;;;;14.61;100.00;101827.91;5115914;28;20478;-56
2023/09/27 07:27:51;;;;;;;26.27;22.67;;;;;;;14.80;100.00;101824.91;5115853;28;20051;-53
2023/09/27 07:30:23;;;;;;;24.25;20.85;;;;;;;15.04;100.00;101830.34;5115871;28;20471;-54
2023/09/27 07:32:53;;;;;;;25.73;22.90;;;;;;;15.17;100.00;101838.31;5115920;28;20039;-53
2023/09/27 07:35:23;;;;;;;23.23;20.60;;;;;;;15.46;100.00;101847.81;5112879;27;20044;-52
2023/09/27 07:37:52;;;;;;;23.60;20.42;;;;;;;15.40;100.00;101856.22;5112856;28;20059;-54
2023/09/27 07:40:21;;;;;;;21.55;19.23;;;;;;;15.45;100.00;101864.72;5110135;28;20387;-54
2023/09/27 07:42:51;;;;;;;21.25;19.05;;;;;;;15.52;100.00;101876.56;5112955;28;20142;-53
2023/09/27 07:45:21;;;;;;;20.95;18.73;;;;;;;15.55;100.00;101866.56;5114529;28;20120;-54
2023/09/27 07:47:51;;;;;;;21.40;19.10;;;;;;;15.61;100.00;101867.09;5113304;28;20039;-55
2023/09/27 07:50:21;;;;;;;21.73;19.35;;;;;;;15.62;100.00;101860.84;5112366;28;20371;-55
2023/09/27 07:52:49;;;;;;;21.15;18.65;;;;;;;15.61;100.00;101857.38;5112983;28;20101;-52
2023/09/27 07:55:22;;;;;;;20.70;17.77;;;;;;;15.62;100.00;101859.03;5112670;28;20049;-54
2023/09/27 07:57:52;;;;;;;20.35;18.23;;;;;;;15.70;100.00;101853.22;5115392;28;20122;-54
2023/09/27 08:00:27;;;;;;;21.15;18.42;;;;;;;15.79;100.00;101836.66;5112588;28;20502;-54
2023/09/27 08:02:57;;;;;;;19.67;17.67;;;;;;;15.85;100.00;101830.09;5112355;28;20082;-53
2023/09/27 08:05:26;;;;;;;20.35;17.65;;;;;;;15.95;100.00;101831.13;5114717;28;20071;-54
2023/09/27 08:07:54;;;;;;;20.05;17.65;;;;;;;16.09;100.00;101826.59;5114737;28;20066;-54
2023/09/27 08:10:24;;;;;;;20.50;18.27;;;;;;;16.24;100.00;101830.81;5115206;28;20101;-53
2023/09/27 08:12:52;;;;;;;22.88;18.52;;;;;;;16.38;100.00;101841.22;5113057;28;20514;-54
2023/09/27 08:15:20;;;;;;;19.52;17.52;;;;;;;16.38;100.00;101837.72;5111758;28;20518;-53
2023/09/27 08:17:49;;;;;;;22.75;17.58;;;;;;;16.54;100.00;101842.75;5111914;28;20043;-55
2023/09/27 08:20:18;;;;;;;21.85;18.50;;;;;;;16.72;100.00;101840.53;5110931;27;20056;-53
2023/09/27 08:22:47;;;;;;;22.58;17.10;;;;;;;16.87;100.00;101847.31;5113356;28;20047;-53
2023/09/27 08:25:15;;;;;;;18.58;16.58;;;;;;;17.13;100.00;101848.97;5113493;28;20051;-52
2023/09/27 08:27:50;;;;;;;19.67;15.82;;;;;;;17.25;100.00;101858.66;5111622;28;20100;-53
2023/09/27 08:30:19;;;;;;;17.33;15.30;;;;;;;17.39;100.00;101850.44;5110548;28;20054;-55
2023/09/27 08:32:48;;;;;;;20.27;15.23;;;;;;;17.37;100.00;101847.06;5113734;28;20043;-53
2023/09/27 08:35:17;;;;;;;18.05;16.13;;;;;;;17.58;100.00;101854.31;5111331;28;20555;-54
2023/09/27 08:37:45;;;;;;;16.48;14.68;;;;;;;17.76;100.00;101862.66;5111534;28;20104;-54
2023/09/27 08:40:16;;;;;;;16.80;14.18;;;;;;;17.93;100.00;101874.66;5109885;28;20051;-54
2023/09/27 08:42:50;;;;;;;26.83;15.73;;;;;;;18.23;100.00;101878.47;5111465;28;20050;-55
2023/09/27 08:45:22;;;;;;;17.88;13.98;;;;;;;18.41;100.00;101886.75;5112137;28;20051;-55
2023/09/27 08:47:51;;;;;;;18.23;12.95;;;;;;;18.45;100.00;101897.97;5111987;28;20407;-57
2023/09/27 08:50:20;;;;;;;16.60;12.65;;;;;;;18.58;100.00;101910.19;5110627;27;20833;-55
2023/09/27 08:52:49;;;;;;;18.40;13.88;;;;;;;18.64;100.00;101906.16;5110961;28;20059;-54
2023/09/27 08:55:19;;;;;;;17.33;12.57;;;;;;;18.81;100.00;101906.56;5112744;28;20036;-53
2023/09/27 08:57:51;;;;;;;16.88;13.43;;;;;;;18.90;100.00;101905.84;5111264;28;20506;-56
2023/09/27 09:00:21;;;;;;;17.80;13.52;;;;;;;19.12;100.00;101914.69;5110623;28;20054;-55
2023/09/27 09:02:56;;;;;;;15.98;13.07;;;;;;;19.13;100.00;101911.03;5113404;28;20067;-52
2023/09/27 09:05:28;;;;;;;16.15;12.18;;;;;;;19.36;100.00;101907.28;5113798;28;20089;-53
2023/09/27 09:07:59;;;;;;;15.02;11.57;;;;;;;19.52;100.00;101911.28;5114021;27;20043;-53
2023/09/27 09:10:28;;;;;;;17.20;12.35;;;;;;;19.53;100.00;101907.63;5113340;28;20520;-52
2023/09/27 09:13:00;;;;;;;14.20;12.02;;;;;;;19.90;100.00;101909.78;5113716;28;20078;-54
2023/09/27 09:15:35;;;;;;;15.57;11.13;;;;;;;20.02;100.00;101903.34;5113895;28;20079;-55
2023/09/27 09:18:06;;;;;;;14.82;11.25;;;;;;;20.23;100.00;101900.59;5112898;28;20047;-54
2023/09/27 09:20:49;;;;;;;14.95;10.43;;;;;;;20.60;100.00;101896.38;5093111;28;20048;-52
2023/09/27 09:23:31;;;;;;;16.67;10.55;;;;;;;20.89;100.00;101887.56;5093252;28;20048;-53
2023/09/27 09:26:00;;;;;;;13.57;9.20;;;;;;;21.13;100.00;101884.41;5093048;28;20399;-53
2023/09/27 09:28:29;;;;;;;13.65;9.77;;;;;;;21.41;100.00;101885.31;5093260;28;20570;-52
2023/09/27 09:30:58;;;;;;;12.18;9.32;;;;;;;21.62;100.00;101881.59;5093326;28;20052;-55
2023/09/27 09:33:28;;;;;;;16.38;8.88;;;;;;;21.82;100.00;101889.56;5105031;28;20043;-53
2023/09/27 09:35:57;;;;;;;12.55;8.27;;;;;;;22.00;100.00;101894.94;5113384;28;20044;-55
2023/09/27 09:38:28;;;;;;;15.13;9.30;;;;;;;22.02;100.00;101883.09;5113606;28;20059;-52
2023/09/27 09:40:59;;;;;;;14.00;8.67;;;;;;;22.07;100.00;101878.13;5113460;28;20077;-51
2023/09/27 09:43:34;;;;;;;11.70;8.25;;;;;;;22.31;100.00;101879.38;5112178;28;20138;-52
2023/09/27 09:46:06;;;;;;;11.35;7.20;;;;;;;22.44;100.00;101874.50;5113363;28;20046;-55
2023/09/27 09:48:35;;;;;;;10.65;7.55;;;;;;;22.58;100.00;101862.41;5113515;28;20506;-52
2023/09/27 09:51:06;;;;;;;11.55;6.95;;;;;;;22.63;100.00;101861.94;5112882;28;20051;-53
2023/09/27 09:53:40;;;;;;;12.82;7.25;;;;;;;22.74;100.00;101859.03;5110227;28;20051;-53
2023/09/27 09:56:10;;;;;;;10.60;6.78;;;;;;;22.91;100.00;101859.13;5109450;28;20054;-53
2023/09/27 09:58:50;;;;;;;9.90;7.00;;;;;;;22.87;100.00;101855.09;5112903;28;20036;-54
2023/09/27 10:01:21;;;;;;;11.40;7.07;;;;;;;22.90;100.00;101847.56;5112839;28;20047;-53
2023/09/27 10:03:53;;;;;;;11.53;7.43;;;;;;;22.98;100.00;101848.63;5112182;28;20077;-55
2023/09/27 10:06:23;;;;;;;11.50;6.43;;;;;;;22.97;100.00;101837.03;5109255;28;20479;-52
2023/09/27 10:09:13;;;;;;;12.00;6.85;;;;;;;22.97;100.00;101837.03;5109240;28;20040;-54
2023/09/27 10:11:44;;;;;;;11.70;6.72;;;;;;;22.95;100.00;101831.00;5112656;28;20115;-55
2023/09/27 10:14:17;;;;;;;11.45;6.15;;;;;;;23.25;100.00;101836.91;5109456;28;20054;-53
2023/09/27 10:16:48;;;;;;;9.48;6.00;;;;;;;23.32;100.00;101837.13;5109131;28;20124;-51
2023/09/27 10:19:26;;;;;;;7.72;5.38;;;;;;;23.39;100.00;101817.50;5109455;28;20134;-51
2023/09/27 10:22:08;;;;;;;10.05;6.90;;;;;;;23.35;100.00;101807.28;5109001;28;20395;-53
2023/09/27 10:24:42;;;;;;;9.25;6.55;;;;;;;23.56;100.00;101793.41;5112190;28;20490;-53
2023/09/27 10:27:11;;;;;;;8.85;5.68;;;;;;;23.66;100.00;101794.13;5111242;28;20079;-54
2023/09/27 10:30:00;;;;;;;9.05;5.72;;;;;;;23.79;100.00;101807.94;5111424;28;20073;-53
2023/09/27 10:32:28;;;;;;;13.15;5.07;;;;;;;24.17;100.00;101793.25;5112517;28;20126;-51
2023/09/27 10:34:56;;;;;;;8.95;5.03;;;;;;;24.35;100.00;101788.56;5109258;28;20360;-54
2023/09/27 10:37:58;;;;;;;10.27;4.93;;;;;;;24.26;100.00;101778.81;5109666;28;20067;-54
2023/09/27 10:40:27;;;;;;;8.63;4.85;;;;;;;24.12;100.00;101791.88;5112315;28;20138;-55
2023/09/27 10:42:56;;;;;;;9.23;5.32;;;;;;;24.05;100.00;101798.09;5110854;28;20054;-53
2023/09/27 10:45:26;;;;;;;9.32;5.50;;;;;;;24.17;100.00;101782.50;5112093;28;20391;-54
2023/09/27 10:47:56;;;;;;;7.82;5.00;;;;;;;24.11;100.00;101779.47;5111449;28;20054;-54
2023/09/27 10:50:29;;;;;;;9.57;5.43;;;;;;;24.38;100.00;101782.84;5109106;28;20134;-55
2023/09/27 10:53:00;;;;;;;9.40;4.80;;;;;;;24.56;100.00;101788.00;5108772;28;20144;-55
2023/09/27 10:55:39;;;;;;;10.77;5.00;;;;;;;24.54;100.00;101790.06;5106717;28;20055;-54
2023/09/27 10:58:08;;;;;;;8.82;4.30;;;;;;;24.62;100.00;101783.84;5107281;28;20067;-53
2023/09/27 11:00:54;;;;;;;8.27;4.68;;;;;;;24.51;100.00;101768.03;5108359;28;20104;-53
2023/09/27 11:03:24;;;;;;;8.23;4.40;;;;;;;24.32;100.00;101769.22;5109004;28;20692;-54
2023/09/27 11:05:52;;;;;;;10.85;5.30;;;;;;;24.06;100.00;101773.75;5108266;28;20055;-54
2023/09/27 11:08:22;;;;;;;10.70;5.32;;;;;;;24.24;100.00;101764.69;5111269;28;20047;-55
2023/09/27 11:10:52;;;;;;;10.00;4.75;;;;;;;24.44;100.00;101755.25;5107234;28;20068;-54
2023/09/27 11:13:21;;;;;;;8.77;5.03;;;;;;;24.48;100.00;101747.69;5108607;28;20116;-53
2023/09/27 11:15:51;;;;;;;9.07;4.88;;;;;;;24.78;100.00;101743.47;5108774;28;20116;-53
2023/09/27 11:18:19;;;;;;;10.68;5.20;;;;;;;24.50;100.00;101737.63;5109104;28;20497;-55